createdAt,value
2022-09-18T04:17:38.541Z,99963.91
2022-09-18T04:20:05.887Z,99966.06
2022-09-18T04:22:32.460Z,99970.97
2022-09-18T04:24:59.317Z,99972.00
2022-09-18T04:27:26.345Z,99972.91
2022-09-18T04:29:56.547Z,99976.66
2022-09-18T04:32:29.056Z,99974.09
2022-09-18T04:34:58.883Z,99978.13
2022-09-18T04:37:32.146Z,99982.34
2022-09-18T04:40:10.680Z,99991.19
2022-09-18T04:42:45.293Z,99989.47
2022-09-18T04:45:15.250Z,99975.25
2022-09-18T04:47:50.840Z,99986.50
2022-09-18T04:50:34.740Z,99986.34
2022-09-18T04:53:32.772Z,99989.56
2022-09-18T04:56:05.141Z,99982.53
2022-09-18T04:58:41.009Z,99984.53
2022-09-18T05:01:12.531Z,99980.53
2022-09-18T05:03:58.067Z,99980.44
2022-09-18T05:06:33.974Z,99978.06
2022-09-18T05:09:00.765Z,99981.59
2022-09-18T05:11:28.411Z,99979.50
2022-09-18T05:13:56.965Z,99982.38
2022-09-18T05:16:33.596Z,99991.00
2022-09-18T05:19:36.075Z,99979.66
2022-09-18T05:22:11.605Z,99974.59
2022-09-18T05:24:45.815Z,99980.75
2022-09-18T05:27:21.406Z,99987.81
2022-09-18T05:29:53.541Z,99986.53
2022-09-18T05:32:39.196Z,99995.22
2022-09-18T05:35:12.515Z,100001.25
2022-09-18T05:37:56.375Z,99994.06
2022-09-18T05:40:34.077Z,99985.75
2022-09-18T05:43:08.358Z,99995.09
2022-09-18T05:45:42.281Z,99997.44
2022-09-18T05:48:22.703Z,99991.75
2022-09-18T05:50:51.948Z,100002.84
2022-09-18T05:53:25.487Z,100001.13
2022-09-18T05:56:12.641Z,99994.94
2022-09-18T05:58:40.880Z,99988.31
2022-09-18T06:01:13.564Z,99996.75
2022-09-18T06:04:16.247Z,99999.47
2022-09-18T06:06:58.187Z,99995.28
2022-09-18T06:09:27.880Z,99998.03
2022-09-18T06:11:55.597Z,99999.84
2022-09-18T06:14:22.830Z,99997.13
2022-09-18T06:16:58.037Z,100010.13
2022-09-18T06:19:28.095Z,100006.47
2022-09-18T06:21:57.813Z,100006.97
2022-09-18T06:24:26.523Z,100008.44
2022-09-18T06:27:11.240Z,100011.31
2022-09-18T06:29:48.905Z,100010.69
2022-09-18T06:32:25.702Z,100009.72
2022-09-18T06:34:56.252Z,100010.66
2022-09-18T06:37:35.845Z,100020.78
2022-09-18T06:40:15.760Z,100013.16
2022-09-18T06:43:26.282Z,100012.34
2022-09-18T06:46:31.634Z,100013.88
2022-09-18T07:10:00.097Z,100023.72
2022-09-18T07:13:44.630Z,100022.47
2022-09-18T07:16:30.017Z,100018.69
2022-09-18T07:19:17.185Z,100024.66
2022-09-18T07:28:15.321Z,100027.03
2022-09-18T07:31:12.886Z,100030.88
2022-09-18T07:37:34.461Z,100029.75
2022-09-18T07:40:47.234Z,100031.75
2022-09-18T07:43:41.572Z,100033.66
2022-09-18T07:46:24.444Z,100032.94
2022-09-18T07:48:54.715Z,100033.25
2022-09-18T07:51:38.145Z,100027.22
2022-09-18T07:54:05.887Z,100014.66
2022-09-18T07:59:35.891Z,100017.81
2022-09-18T08:02:08.227Z,100025.19
2022-09-18T08:04:47.877Z,100015.03
2022-09-18T08:07:30.314Z,100022.13
2022-09-18T08:10:08.456Z,100011.75
2022-09-18T08:12:59.417Z,100008.06
2022-09-18T08:15:58.603Z,100014.19
2022-09-18T08:18:59.114Z,100018.94
2022-09-18T08:21:39.287Z,100009.22
2022-09-18T08:24:19.418Z,100014.50
2022-09-18T08:26:46.324Z,100011.63
2022-09-18T08:29:27.867Z,100020.19
2022-09-18T08:32:09.816Z,100023.16
2022-09-18T08:35:09.540Z,100019.28
2022-09-18T08:37:41.134Z,100027.00
2022-09-18T08:40:57.705Z,100017.06
2022-09-18T08:44:11.099Z,100017.88
2022-09-18T08:47:07.816Z,100017.09
2022-09-18T08:50:04.387Z,100011.41
2022-09-18T08:52:53.416Z,100009.00
2022-09-18T08:55:55.585Z,100006.72
2022-09-18T08:58:56.910Z,100005.59
2022-09-18T09:04:29.673Z,100010.56
2022-09-18T09:07:21.619Z,100003.44
2022-09-18T09:17:51.073Z,100001.56
2022-09-18T09:21:18.837Z,100001.03
2022-09-18T09:28:52.802Z,99998.47
2022-09-18T09:39:32.538Z,99999.59
2022-09-18T10:33:37.829Z,100004.84
2022-09-18T10:36:19.793Z,99987.28
2022-09-18T10:38:46.373Z,99991.66
2022-09-18T10:41:40.397Z,99990.47
2022-09-18T10:44:12.519Z,99998.16
2022-09-18T10:46:51.863Z,99988.69
2022-09-18T10:49:23.629Z,99983.91
2022-09-18T10:52:27.209Z,99984.97
2022-09-18T10:55:26.928Z,99980.53
2022-09-18T10:57:57.748Z,99984.91
2022-09-18T11:00:25.497Z,99981.50
2022-09-18T11:02:58.041Z,99972.84
2022-09-18T11:05:33.055Z,99970.88
2022-09-18T11:08:05.844Z,99964.28
2022-09-18T11:10:34.092Z,99965.88
2022-09-18T11:13:02.863Z,99957.56
2022-09-18T11:15:53.022Z,99965.56
2022-09-18T11:18:20.229Z,99949.41
2022-09-18T11:20:47.621Z,99964.41
2022-09-18T11:23:29.262Z,99959.91
2022-09-18T11:26:21.241Z,99963.75
2022-09-18T11:29:01.111Z,99955.78
2022-09-18T11:31:58.095Z,99945.69
2022-09-18T11:34:31.969Z,99952.88
2022-09-18T11:37:06.975Z,99948.59
2022-09-18T11:39:54.842Z,99957.38
2022-09-18T11:42:21.442Z,99954.03
2022-09-18T11:44:49.478Z,99950.56
2022-09-18T11:47:30.531Z,99945.69
2022-09-18T11:50:18.815Z,99941.50
2022-09-18T11:52:50.752Z,99942.63
2022-09-18T11:55:41.753Z,99948.97
2022-09-18T11:58:16.863Z,99945.47
2022-09-18T12:01:02.980Z,99954.84
2022-09-18T12:03:37.152Z,99976.13
2022-09-18T12:06:14.055Z,99956.31
2022-09-18T12:09:05.909Z,99941.28
2022-09-18T12:11:56.852Z,99942.97
2022-09-18T12:15:05.795Z,99940.41
2022-09-18T12:18:00.592Z,99941.38
2022-09-18T12:20:40.186Z,99937.19
2022-09-18T12:23:15.245Z,99941.66
2022-09-18T12:26:02.939Z,99935.03
2022-09-18T12:28:53.599Z,99940.88
2022-09-18T12:31:31.467Z,99945.28
2022-09-18T12:34:08.419Z,99945.75
2022-09-18T12:36:52.128Z,99945.34
2022-09-18T12:39:30.396Z,99956.56
2022-09-18T12:42:29.277Z,99940.44
2022-09-18T12:44:58.713Z,99932.47
2022-09-18T12:47:48.165Z,99936.97
2022-09-18T12:50:23.624Z,99932.75
2022-09-18T12:53:14.961Z,99927.88
2022-09-18T12:55:50.384Z,99928.06
2022-09-18T12:58:47.917Z,99927.94
2022-09-18T13:01:25.181Z,99918.59
2022-09-18T13:03:56.512Z,99919.56
2022-09-18T13:06:56.704Z,99928.94
2022-09-18T13:09:31.498Z,99914.59
2022-09-18T13:12:03.955Z,99918.59
2022-09-18T13:15:07.020Z,99923.53
2022-09-18T13:17:40.179Z,99906.28
2022-09-18T13:20:27.980Z,99907.59
2022-09-18T13:22:54.922Z,99913.00
2022-09-18T13:25:26.106Z,99911.75
2022-09-18T13:27:54.657Z,99914.13
2022-09-18T13:30:27.302Z,99914.59
2022-09-18T13:32:54.450Z,99906.59
2022-09-18T13:35:24.659Z,99898.13
2022-09-18T13:38:09.541Z,99894.25
2022-09-18T13:40:49.073Z,99910.81
2022-09-18T13:43:23.632Z,99899.00
2022-09-18T13:45:50.688Z,99895.38
2022-09-18T13:48:17.081Z,99907.06
2022-09-18T13:50:49.492Z,99895.84
2022-09-18T13:53:42.308Z,99899.94
2022-09-18T13:56:14.713Z,99907.81
2022-09-18T13:58:50.205Z,99890.53
2022-09-18T14:01:41.863Z,99894.66
2022-09-18T14:04:39.433Z,99899.34
2022-09-18T14:07:18.330Z,99892.81
2022-09-18T14:09:52.663Z,99913.97
2022-09-18T14:12:20.654Z,99898.97
2022-09-18T14:15:04.198Z,99904.84
2022-09-18T14:17:32.894Z,99901.72
2022-09-18T14:20:07.617Z,99913.75
2022-09-18T14:22:38.148Z,99906.88
2022-09-18T14:25:08.468Z,99921.41
2022-09-18T14:27:39.476Z,99899.00
2022-09-18T14:30:27.145Z,99895.22
2022-09-18T14:33:02.350Z,99881.47
2022-09-18T14:35:50.215Z,99887.34
2022-09-18T14:38:38.296Z,99877.03
2022-09-18T14:41:19.291Z,99876.25
2022-09-18T14:43:55.859Z,99874.19
2022-09-18T14:46:24.662Z,99876.91
2022-09-18T14:48:51.838Z,99872.78
2022-09-18T14:51:29.329Z,99880.13
2022-09-18T14:53:58.626Z,99874.53
2022-09-18T14:56:37.295Z,99875.50
2022-09-18T14:59:07.011Z,99871.47
2022-09-18T15:01:39.977Z,99868.81
2022-09-18T15:04:14.755Z,99873.50
2022-09-18T15:06:47.535Z,99879.84
2022-09-18T15:09:16.708Z,99869.41
2022-09-18T15:12:01.793Z,99868.28
2022-09-18T15:14:44.085Z,99863.25
2022-09-18T15:17:20.976Z,99859.06
2022-09-18T15:19:56.528Z,99862.50
2022-09-18T15:22:23.554Z,99861.47
2022-09-18T15:24:50.284Z,99866.25
2022-09-18T15:27:17.728Z,99855.31
2022-09-18T15:29:57.941Z,99860.59
2022-09-18T15:32:30.272Z,99855.06
2022-09-18T15:34:57.957Z,99847.22
2022-09-18T15:37:26.652Z,99845.03
2022-09-18T15:40:20.957Z,99838.78
2022-09-18T15:43:01.549Z,99848.88
2022-09-18T15:45:31.572Z,99850.63
2022-09-18T15:48:01.328Z,99845.47
2022-09-18T15:50:34.115Z,99858.50
2022-09-18T15:53:21.487Z,99849.53
2022-09-18T15:56:00.839Z,99851.84
2022-09-18T15:58:37.058Z,99848.78
2022-09-18T16:01:05.831Z,99843.88
2022-09-18T16:03:33.236Z,99844.34
2022-09-18T16:06:04.884Z,99842.22
2022-09-18T16:08:34.079Z,99849.66
2022-09-18T16:11:00.961Z,99852.31
2022-09-18T16:13:35.244Z,99838.34
2022-09-18T16:16:23.912Z,99838.47
2022-09-18T16:19:10.784Z,99850.84
2022-09-18T16:21:43.291Z,99835.31
2022-09-18T16:24:29.877Z,99828.97
2022-09-18T16:27:06.837Z,99828.19
2022-09-18T16:29:34.563Z,99827.31
2022-09-18T16:32:01.187Z,99827.53
2022-09-18T16:34:28.700Z,99835.25
2022-09-18T16:36:56.055Z,99824.34
2022-09-18T16:39:25.300Z,99822.97
2022-09-18T16:41:52.373Z,99828.50
2022-09-18T16:44:19.237Z,99819.97
2022-09-18T16:47:08.409Z,99831.03
2022-09-18T16:49:38.892Z,99828.84
2022-09-18T16:52:06.535Z,99838.63
2022-09-18T16:54:32.999Z,99837.19
2022-09-18T16:57:21.228Z,99851.28
2022-09-18T16:59:49.653Z,99850.75
2022-09-18T17:02:22.359Z,99835.88
2022-09-18T17:04:50.997Z,99848.03
2022-09-18T17:07:17.479Z,99850.00
2022-09-18T17:09:43.950Z,99843.19
2022-09-18T17:12:10.378Z,99838.00
2022-09-18T17:14:37.988Z,99841.69
2022-09-18T17:17:05.990Z,99838.00
2022-09-18T17:19:32.517Z,99829.72
2022-09-18T17:21:58.972Z,99835.69
2022-09-18T17:24:27.583Z,99832.03
2022-09-18T17:26:54.153Z,99829.78
2022-09-18T17:29:23.480Z,99828.56
2022-09-18T17:31:50.647Z,99827.78
2022-09-18T17:34:19.142Z,99833.50
2022-09-18T17:36:46.029Z,99823.16
2022-09-18T17:39:12.674Z,99828.44
2022-09-18T17:41:39.175Z,99831.31
2022-09-18T17:44:05.672Z,99823.75
2022-09-18T17:46:32.179Z,99827.66
2022-09-18T17:48:59.600Z,99832.03
2022-09-18T17:51:29.175Z,99820.72
2022-09-18T17:54:02.847Z,99823.34
2022-09-18T17:56:30.192Z,99823.19
2022-09-18T17:58:59.824Z,99831.59
2022-09-18T18:01:28.446Z,99824.53
2022-09-18T18:03:55.354Z,99819.72
2022-09-18T18:06:22.040Z,99827.38
2022-09-18T18:08:49.922Z,99813.13
2022-09-18T18:11:18.707Z,99818.19
2022-09-18T18:13:47.576Z,99823.91
2022-09-18T18:16:16.934Z,99831.03
2022-09-18T18:18:43.514Z,99824.31
2022-09-18T18:21:10.775Z,99831.13
2022-09-18T18:23:40.637Z,99837.75
2022-09-18T18:26:09.446Z,99834.47
2022-09-18T18:28:37.477Z,99836.75
2022-09-18T18:31:07.471Z,99835.59
2022-09-18T18:33:35.333Z,99835.06
2022-09-18T18:38:57.327Z,99838.00
2022-09-18T18:41:25.882Z,99837.47
2022-09-18T18:43:55.395Z,99843.28
2022-09-18T18:46:27.249Z,99850.78
2022-09-18T18:49:02.748Z,99879.78
2022-09-18T18:51:45.425Z,99885.03
2022-09-18T18:54:12.913Z,99894.59
2022-09-18T18:56:40.353Z,99885.38
2022-09-18T18:59:10.856Z,99897.00
2022-09-18T19:01:38.503Z,99899.19
2022-09-18T19:04:08.910Z,99906.34
2022-09-18T19:06:49.363Z,99907.88
2022-09-18T19:09:20.573Z,99916.63
2022-09-18T19:11:49.113Z,99919.53
2022-09-18T19:14:17.160Z,99924.03
2022-09-18T19:16:44.997Z,99924.81
2022-09-18T19:19:12.963Z,99926.16
2022-09-18T19:21:42.649Z,99921.44
2022-09-18T19:24:15.167Z,99921.16
2022-09-18T19:26:42.948Z,99931.41
2022-09-18T19:29:12.617Z,99932.41
2022-09-18T19:31:40.984Z,99937.72
2022-09-18T19:34:24.078Z,99942.34
2022-09-18T19:37:21.815Z,99943.03
2022-09-18T19:39:52.053Z,99947.59
2022-09-18T19:42:18.792Z,99942.41
2022-09-18T19:44:57.232Z,99942.22
2022-09-18T19:48:12.628Z,99953.03
2022-09-18T19:50:46.943Z,99960.31
2022-09-18T19:53:15.669Z,99956.06
2022-09-18T19:56:50.895Z,99960.28
2022-09-18T19:59:17.431Z,99966.72
2022-09-18T20:01:49.246Z,99972.34
2022-09-18T20:05:10.692Z,99967.91
2022-09-18T20:07:38.431Z,99956.09
2022-09-18T20:10:07.607Z,99957.28
2022-09-18T20:12:35.750Z,99967.31
2022-09-18T20:15:03.612Z,99983.16
2022-09-18T20:17:31.635Z,99980.22
2022-09-18T20:20:51.398Z,99977.56
2022-09-18T20:23:17.818Z,99964.53
2022-09-18T20:25:44.231Z,99967.75
2022-09-18T20:28:10.665Z,99962.84
2022-09-18T20:30:43.678Z,99962.66
2022-09-18T20:33:10.174Z,99964.09
2022-09-18T20:35:38.005Z,99963.09
2022-09-18T20:38:07.701Z,99954.28
2022-09-18T20:40:34.880Z,99948.84
2022-09-18T20:43:03.240Z,99939.16
2022-09-18T20:45:30.766Z,99909.81
2022-09-18T20:47:59.491Z,99903.88
2022-09-18T20:50:27.675Z,99923.28
2022-09-18T20:52:54.125Z,99951.09
2022-09-18T20:55:20.697Z,99968.41
2022-09-18T20:57:47.617Z,99955.31
2022-09-18T21:01:20.149Z,99946.25
2022-09-18T21:03:48.942Z,99933.69
2022-09-18T21:06:22.820Z,99940.28
2022-09-18T21:08:53.289Z,99946.53
2022-09-18T21:11:49.631Z,99959.97
2022-09-18T21:14:17.765Z,99962.69
2022-09-18T21:16:44.849Z,99968.13
2022-09-18T21:19:19.325Z,99965.84
2022-09-18T21:21:47.274Z,99972.84
2022-09-18T21:24:14.651Z,99960.84
2022-09-18T21:26:47.759Z,99952.16
2022-09-18T21:29:17.888Z,99945.59
2022-09-18T21:31:46.837Z,99946.50
2022-09-18T21:34:23.364Z,99948.09
2022-09-18T21:36:57.536Z,99953.59
2022-09-18T21:39:25.751Z,99967.50
2022-09-18T21:41:53.162Z,99967.50
2022-09-18T21:44:24.574Z,99968.53
2022-09-18T21:46:52.217Z,99965.78
2022-09-18T21:49:19.119Z,99972.06
2022-09-18T21:51:46.890Z,99973.69
2022-09-18T21:54:16.133Z,99974.22
2022-09-18T21:56:44.175Z,99971.69
2022-09-18T21:59:11.548Z,99986.00
